createdAt,value
2022-10-15T00:01:26.943Z,12.45
2022-10-15T00:04:04.478Z,12.08
2022-10-15T00:06:43.167Z,12.13
2022-10-15T00:09:21.897Z,11.75
2022-10-15T00:12:00.425Z,12.26
2022-10-15T00:14:39.115Z,12.24
2022-10-15T00:17:17.870Z,11.80
2022-10-15T00:19:56.410Z,11.52
2022-10-15T00:22:35.158Z,11.74
2022-10-15T00:25:13.765Z,12.25
2022-10-15T00:27:50.756Z,11.86
2022-10-15T00:30:29.846Z,12.07
2022-10-15T00:33:08.378Z,11.65
2022-10-15T00:35:46.826Z,12.23
2022-10-15T00:38:25.442Z,11.88
2022-10-15T00:41:04.118Z,12.12
2022-10-15T00:43:45.849Z,12.08
2022-10-15T00:46:49.850Z,11.50
2022-10-15T00:49:31.137Z,12.20
2022-10-15T00:52:13.278Z,12.31
2022-10-15T00:54:54.339Z,11.90
2022-10-15T00:57:33.100Z,11.70
2022-10-15T01:00:15.284Z,11.43
2022-10-15T01:02:53.721Z,12.06
2022-10-15T01:05:32.453Z,12.09
2022-10-15T01:08:10.914Z,12.27
2022-10-15T01:10:51.132Z,12.42
2022-10-15T01:13:42.930Z,12.42
2022-10-15T01:16:34.642Z,11.57
2022-10-15T01:19:26.517Z,11.71
2022-10-15T01:22:14.014Z,11.55
2022-10-15T01:25:03.463Z,11.56
2022-10-15T01:28:13.241Z,11.41
2022-10-15T01:31:03.179Z,11.40
2022-10-15T01:33:55.365Z,11.16
2022-10-15T01:36:55.061Z,10.84
2022-10-15T01:39:52.075Z,10.94
2022-10-15T01:42:46.536Z,11.06
2022-10-15T01:45:37.564Z,11.14
2022-10-15T01:48:24.591Z,11.16
2022-10-15T01:51:11.476Z,11.36
2022-10-15T01:53:58.788Z,11.22
2022-10-15T01:56:49.627Z,11.33
2022-10-15T01:59:36.457Z,11.16
2022-10-15T02:02:22.957Z,11.24
2022-10-15T02:05:11.481Z,11.18
2022-10-15T02:07:57.907Z,11.01
2022-10-15T02:11:03.840Z,11.28
2022-10-15T02:14:05.225Z,11.26
2022-10-15T02:17:10.425Z,10.92
2022-10-15T02:20:06.722Z,10.42
2022-10-15T02:22:59.604Z,10.81
2022-10-15T02:25:45.535Z,11.12
2022-10-15T02:28:31.857Z,11.09
2022-10-15T02:31:17.986Z,11.23
2022-10-15T02:34:06.280Z,11.13
2022-10-15T02:36:52.460Z,11.04
2022-10-15T02:39:38.641Z,10.77
2022-10-15T02:42:24.664Z,11.09
2022-10-15T02:45:11.318Z,10.98
2022-10-15T02:48:00.593Z,11.12
2022-10-15T02:50:47.122Z,10.90
2022-10-15T02:53:33.376Z,10.29
2022-10-15T02:56:19.708Z,10.82
2022-10-15T02:59:06.662Z,10.72
2022-10-15T03:01:52.921Z,10.78
2022-10-15T03:04:39.564Z,11.02
2022-10-15T03:07:26.213Z,11.14
2022-10-15T03:10:14.076Z,11.32
2022-10-15T03:13:05.418Z,11.15
2022-10-15T03:15:54.793Z,11.22
2022-10-15T03:18:41.428Z,11.22
2022-10-15T03:21:30.972Z,11.50
2022-10-15T03:24:21.738Z,11.65
2022-10-15T03:27:08.709Z,11.46
2022-10-15T03:29:57.458Z,11.50
2022-10-15T03:35:35.658Z,11.38
2022-10-15T03:38:22.775Z,10.92
2022-10-15T03:41:11.648Z,10.97
2022-10-15T03:44:03.122Z,11.23
2022-10-15T03:46:50.376Z,11.33
2022-10-15T03:49:37.874Z,11.24
2022-10-15T03:52:25.843Z,10.96
2022-10-15T03:55:17.807Z,11.50
2022-10-15T03:58:05.179Z,11.32
2022-10-15T04:00:52.533Z,11.20
2022-10-15T04:03:40.079Z,11.24
2022-10-15T04:06:27.123Z,11.23
2022-10-15T04:09:15.619Z,11.20
2022-10-15T04:12:03.337Z,11.08
2022-10-15T04:14:50.419Z,10.61
2022-10-15T04:17:37.478Z,10.71
2022-10-15T04:20:25.572Z,10.75
2022-10-15T04:23:11.983Z,9.16
2022-10-15T04:26:01.058Z,9.55
2022-10-15T04:28:48.856Z,9.68
2022-10-15T04:31:38.389Z,10.17
2022-10-15T04:34:24.750Z,10.20
2022-10-15T04:37:14.085Z,9.66
2022-10-15T04:40:01.574Z,8.99
2022-10-15T04:42:48.913Z,9.54
2022-10-15T04:45:39.548Z,10.09
2022-10-15T04:48:30.706Z,10.39
2022-10-15T04:51:27.649Z,10.58
2022-10-15T04:54:25.410Z,10.38
2022-10-15T04:57:13.999Z,10.32
2022-10-15T05:00:02.661Z,10.45
2022-10-15T05:02:53.465Z,10.31
2022-10-15T05:05:40.259Z,10.34
2022-10-15T05:08:34.837Z,9.61
2022-10-15T05:11:26.465Z,10.07
2022-10-15T05:14:15.598Z,10.08
2022-10-15T05:17:10.161Z,10.02
2022-10-15T05:20:04.940Z,9.66
2022-10-15T05:25:54.171Z,9.30
2022-10-15T05:28:53.602Z,9.28
2022-10-15T05:31:51.425Z,10.00
2022-10-15T05:34:40.761Z,10.05
2022-10-15T05:37:30.807Z,10.53
2022-10-15T05:40:21.267Z,10.60
2022-10-15T05:43:14.283Z,10.70
2022-10-15T05:46:03.439Z,10.60
2022-10-15T05:48:53.823Z,10.62
2022-10-15T05:51:43.453Z,10.59
2022-10-15T05:54:54.447Z,10.61
2022-10-15T05:57:42.924Z,10.42
2022-10-15T06:00:30.994Z,10.50
2022-10-15T06:03:18.564Z,10.56
2022-10-15T06:06:05.381Z,10.64
2022-10-15T06:08:58.558Z,10.97
2022-10-15T06:11:49.411Z,10.82
2022-10-15T06:14:40.629Z,10.90
2022-10-15T06:17:28.557Z,11.16
2022-10-15T06:20:19.392Z,10.85
2022-10-15T06:23:25.439Z,11.32
2022-10-15T06:26:13.691Z,11.20
2022-10-15T06:29:06.477Z,11.30
2022-10-15T06:32:10.620Z,11.75
2022-10-15T06:35:16.734Z,11.42
2022-10-15T06:38:04.702Z,12.00
2022-10-15T06:40:54.851Z,11.87
2022-10-15T06:43:42.983Z,12.08
2022-10-15T06:46:33.426Z,11.95
2022-10-15T06:49:25.214Z,11.87
2022-10-15T06:52:21.449Z,12.07
2022-10-15T06:55:10.277Z,12.18
2022-10-15T06:57:57.386Z,11.92
2022-10-15T07:00:50.452Z,11.98
2022-10-15T07:03:44.936Z,12.14
2022-10-15T07:06:35.400Z,12.13
2022-10-15T07:09:26.265Z,11.89
2022-10-15T07:12:16.459Z,12.33
2022-10-15T07:18:01.863Z,12.27
2022-10-15T07:20:49.416Z,12.64
2022-10-15T07:23:39.749Z,12.52
2022-10-15T07:26:42.388Z,12.51
2022-10-15T07:29:29.217Z,12.97
2022-10-15T07:32:25.637Z,13.30
2022-10-15T07:35:29.467Z,13.39
2022-10-15T07:38:25.679Z,12.97
2022-10-15T07:41:18.939Z,13.22
2022-10-15T07:44:12.392Z,13.66
2022-10-15T07:46:59.054Z,13.70
2022-10-15T07:49:53.623Z,14.20
2022-10-15T07:52:40.380Z,13.91
2022-10-15T07:55:32.527Z,14.47
2022-10-15T07:58:19.396Z,14.42
2022-10-15T08:04:15.968Z,13.84
2022-10-15T08:07:06.796Z,14.30
2022-10-15T08:09:59.799Z,15.02
2022-10-15T08:12:47.770Z,15.19
2022-10-15T08:15:36.413Z,14.92
2022-10-15T08:18:24.816Z,14.58
2022-10-15T08:21:12.375Z,15.01
2022-10-15T08:24:02.026Z,15.37
2022-10-15T08:26:55.497Z,15.16
2022-10-15T08:29:55.908Z,15.13
2022-10-15T08:32:44.414Z,14.92
2022-10-15T08:35:35.456Z,15.73
2022-10-15T08:38:24.293Z,15.85
2022-10-15T08:41:29.424Z,15.52
2022-10-15T08:44:27.844Z,15.78
2022-10-15T08:47:41.508Z,16.13
2022-10-15T08:50:29.834Z,15.90
2022-10-15T08:53:20.801Z,16.23
2022-10-15T08:56:16.103Z,16.29
2022-10-15T08:59:16.458Z,16.72
2022-10-15T09:02:18.719Z,16.79
2022-10-15T09:05:27.723Z,17.03
2022-10-15T09:08:14.945Z,17.03
2022-10-15T09:11:16.397Z,16.92
2022-10-15T09:14:10.601Z,17.44
2022-10-15T09:17:00.416Z,17.60
2022-10-15T09:19:54.431Z,17.62
2022-10-15T09:25:38.561Z,17.46
2022-10-15T09:28:31.529Z,18.16
2022-10-15T09:31:29.417Z,17.93
2022-10-15T09:34:28.837Z,17.59
2022-10-15T09:37:16.101Z,18.27
2022-10-15T09:40:20.416Z,17.76
2022-10-15T09:43:09.475Z,17.73
2022-10-15T09:46:02.038Z,18.28
2022-10-15T09:49:19.094Z,18.64
2022-10-15T09:52:10.588Z,18.69
2022-10-15T09:55:11.412Z,18.93
2022-10-15T09:58:13.672Z,19.12
2022-10-15T10:01:07.412Z,19.18
2022-10-15T10:04:13.436Z,19.51
2022-10-15T10:07:04.389Z,19.37
2022-10-15T10:09:55.029Z,19.55
2022-10-15T10:12:41.887Z,19.82
2022-10-15T10:15:34.421Z,19.90
2022-10-15T10:18:39.013Z,19.50
2022-10-15T10:24:30.374Z,19.96
2022-10-15T10:27:40.603Z,19.38
2022-10-15T10:30:28.473Z,19.46
2022-10-15T10:33:45.709Z,19.76
2022-10-15T10:36:34.483Z,19.79
2022-10-15T10:39:26.472Z,19.66
2022-10-15T10:42:23.567Z,20.10
2022-10-15T10:45:19.110Z,19.95
2022-10-15T10:48:20.314Z,20.12
2022-10-15T10:51:14.028Z,19.97
2022-10-15T10:54:17.782Z,20.35
2022-10-15T11:00:13.549Z,19.45
2022-10-15T11:03:03.433Z,19.69
2022-10-15T11:12:23.141Z,19.94
2022-10-15T11:15:30.723Z,19.92
2022-10-15T11:18:21.976Z,20.11
2022-10-15T11:21:17.520Z,20.14
2022-10-15T11:24:18.098Z,20.02
2022-10-15T11:27:12.707Z,19.45
2022-10-15T11:30:06.133Z,19.16
2022-10-15T11:33:23.452Z,19.40
2022-10-15T11:36:26.429Z,19.32
2022-10-15T11:39:20.472Z,19.38
2022-10-15T11:42:21.645Z,19.17
2022-10-15T11:45:20.925Z,19.51
2022-10-15T11:48:19.412Z,19.28
2022-10-15T11:51:18.269Z,19.86
2022-10-15T11:54:14.504Z,20.03
2022-10-15T11:57:02.728Z,19.60
2022-10-15T11:59:56.393Z,20.24
2022-10-15T12:02:47.876Z,19.64
2022-10-15T12:05:54.585Z,19.67
2022-10-15T12:15:01.421Z,20.26
2022-10-15T12:18:06.421Z,20.20
2022-10-15T12:20:55.846Z,20.07
2022-10-15T12:23:46.421Z,19.96
2022-10-15T12:26:40.257Z,19.63
2022-10-15T12:29:31.186Z,19.67
2022-10-15T12:35:34.827Z,19.60
2022-10-15T12:38:25.744Z,19.75
2022-10-15T12:44:34.425Z,19.17
2022-10-15T12:47:45.127Z,19.17
2022-10-15T12:50:40.443Z,19.41
2022-10-15T12:56:33.401Z,18.66
2022-10-15T12:59:32.438Z,19.25
2022-10-15T13:02:31.506Z,19.24
2022-10-15T13:05:31.458Z,19.20
2022-10-15T13:08:24.628Z,19.30
2022-10-15T13:11:25.488Z,19.41
2022-10-15T13:14:12.441Z,19.31
2022-10-15T13:17:00.804Z,19.59
2022-10-15T13:19:52.059Z,19.74
2022-10-15T13:22:43.454Z,19.69
2022-10-15T13:25:38.464Z,19.57
2022-10-15T13:28:37.014Z,19.62
2022-10-15T13:31:30.819Z,19.92
2022-10-15T13:37:24.367Z,19.83
2022-10-15T13:40:18.646Z,19.52
2022-10-15T13:43:35.356Z,19.29
2022-10-15T13:46:32.463Z,19.79
2022-10-15T13:49:28.983Z,19.62
2022-10-15T13:52:32.412Z,19.73
2022-10-15T13:55:24.583Z,19.21
2022-10-15T13:58:29.224Z,19.50
2022-10-15T14:01:22.150Z,19.50
2022-10-15T14:04:16.595Z,19.58
2022-10-15T14:07:16.691Z,19.56
2022-10-15T14:10:10.649Z,19.66
2022-10-15T14:13:05.637Z,19.60
2022-10-15T14:18:52.664Z,19.83
2022-10-15T14:21:47.455Z,19.76
2022-10-15T14:24:47.958Z,19.81
2022-10-15T14:27:44.541Z,20.02
2022-10-15T14:30:32.931Z,20.02
2022-10-15T14:33:40.658Z,20.18
2022-10-15T14:36:30.358Z,20.19
2022-10-15T14:39:28.897Z,20.25
2022-10-15T14:42:31.454Z,19.96
2022-10-15T14:45:28.878Z,20.21
2022-10-15T14:48:27.689Z,19.88
2022-10-15T14:51:31.566Z,19.88
2022-10-15T14:54:19.238Z,19.93
2022-10-15T15:00:43.497Z,19.53
2022-10-15T15:03:32.512Z,19.68
2022-10-15T15:06:25.474Z,19.82
2022-10-15T15:09:20.937Z,19.91
2022-10-15T15:12:18.312Z,19.67
2022-10-15T15:18:13.025Z,19.63
2022-10-15T15:21:05.922Z,19.57
2022-10-15T15:23:52.098Z,19.81
2022-10-15T15:26:42.827Z,19.91
2022-10-15T15:29:32.032Z,19.62
2022-10-15T15:32:29.529Z,19.76
2022-10-15T15:35:21.715Z,19.44
2022-10-15T15:38:13.138Z,19.71
2022-10-15T15:41:01.934Z,19.75
2022-10-15T15:44:05.428Z,19.51
2022-10-15T15:46:56.224Z,19.48
2022-10-15T15:49:51.552Z,19.33
2022-10-15T15:55:39.604Z,19.28
2022-10-15T15:58:29.228Z,19.32
2022-10-15T16:01:22.897Z,19.37
2022-10-15T16:04:13.580Z,19.32
2022-10-15T16:07:04.470Z,19.07
2022-10-15T16:10:00.663Z,19.06
2022-10-15T16:16:02.536Z,18.92
2022-10-15T16:18:49.796Z,18.94
2022-10-15T16:24:42.438Z,18.84
2022-10-15T16:27:31.494Z,18.65
2022-10-15T16:30:28.182Z,18.76
2022-10-15T16:33:28.545Z,18.47
2022-10-15T16:36:25.462Z,18.57
2022-10-15T16:39:13.267Z,18.58
2022-10-15T16:42:14.959Z,18.47
2022-10-15T16:45:15.502Z,18.20
2022-10-15T16:48:02.238Z,18.22
2022-10-15T16:50:54.591Z,18.27
2022-10-15T16:53:50.031Z,18.27
2022-10-15T16:56:42.434Z,18.29
2022-10-15T16:59:31.994Z,18.32
2022-10-15T17:05:23.004Z,18.43
2022-10-15T17:08:15.791Z,18.52
2022-10-15T17:11:07.533Z,18.31
2022-10-15T17:13:56.636Z,18.43
2022-10-15T17:16:56.410Z,18.46
2022-10-15T17:19:45.483Z,18.33
2022-10-15T17:22:40.477Z,18.18
2022-10-15T17:25:32.961Z,18.25
2022-10-15T17:28:23.411Z,17.93
2022-10-15T17:31:19.638Z,17.96
2022-10-15T17:34:11.670Z,17.88
2022-10-15T17:37:02.539Z,17.89
2022-10-15T17:42:56.716Z,17.91
2022-10-15T17:45:43.888Z,17.64
2022-10-15T17:48:41.869Z,17.68
2022-10-15T17:54:34.454Z,17.59
2022-10-15T17:57:25.832Z,17.94
2022-10-15T18:00:14.516Z,17.86
2022-10-15T18:03:05.679Z,18.00
2022-10-15T18:05:57.433Z,17.74
2022-10-15T18:08:52.751Z,17.80
2022-10-15T18:14:59.012Z,17.92
2022-10-15T18:17:45.007Z,18.07
2022-10-15T18:20:35.455Z,17.86
2022-10-15T18:23:24.490Z,17.76
2022-10-15T18:26:19.521Z,18.02
2022-10-15T18:29:09.470Z,17.74
2022-10-15T18:32:07.441Z,17.84
2022-10-15T18:34:53.998Z,17.98
2022-10-15T18:37:52.505Z,18.05
2022-10-15T18:41:00.517Z,17.81
2022-10-15T18:43:52.462Z,17.94
2022-10-15T18:46:47.535Z,17.81
2022-10-15T18:49:36.372Z,17.89
2022-10-15T18:52:38.766Z,17.90
2022-10-15T18:55:37.551Z,17.73
2022-10-15T18:58:39.215Z,17.71
2022-10-15T19:04:25.782Z,17.58
2022-10-15T19:07:18.837Z,17.57
2022-10-15T19:16:11.967Z,17.27
2022-10-15T19:19:00.489Z,17.35
2022-10-15T19:21:57.425Z,17.75
2022-10-15T19:24:48.467Z,17.60
2022-10-15T19:27:36.897Z,17.19
2022-10-15T19:30:28.178Z,16.99
2022-10-15T19:33:17.471Z,17.05
2022-10-15T19:36:20.476Z,17.28
2022-10-15T19:39:11.787Z,17.28
2022-10-15T19:42:01.889Z,16.65
2022-10-15T19:44:54.720Z,16.86
2022-10-15T19:47:41.471Z,16.94
2022-10-15T19:50:30.838Z,16.47
2022-10-15T19:53:32.421Z,16.63
2022-10-15T19:56:22.675Z,16.62
2022-10-15T19:59:10.226Z,16.95
2022-10-15T20:02:02.807Z,16.68
2022-10-15T20:04:49.882Z,17.08
2022-10-15T20:07:37.438Z,17.07
2022-10-15T20:10:26.635Z,17.04
2022-10-15T20:13:14.709Z,17.12
2022-10-15T20:16:03.042Z,16.89
2022-10-15T20:18:51.646Z,16.99
2022-10-15T20:21:44.904Z,16.72
2022-10-15T20:24:32.551Z,16.77
2022-10-15T20:27:25.115Z,17.07
2022-10-15T20:30:15.875Z,17.28
2022-10-15T20:33:06.239Z,17.37
2022-10-15T20:35:54.516Z,17.13
2022-10-15T20:38:44.872Z,16.89
2022-10-15T20:41:31.647Z,17.08
2022-10-15T20:44:25.611Z,16.85
2022-10-15T20:47:13.405Z,16.68
2022-10-15T20:50:04.491Z,16.82
2022-10-15T20:52:51.632Z,16.71
2022-10-15T20:55:42.154Z,16.78
2022-10-15T20:58:29.705Z,16.87
2022-10-15T21:01:16.700Z,16.75
2022-10-15T21:04:04.652Z,16.70
2022-10-15T21:06:51.661Z,17.02
2022-10-15T21:09:41.331Z,16.82
2022-10-15T21:12:27.837Z,16.88
2022-10-15T21:15:14.702Z,16.60
2022-10-15T21:18:01.559Z,16.66
2022-10-15T21:20:49.458Z,16.84
2022-10-15T21:23:36.646Z,16.97
2022-10-15T21:26:24.176Z,16.57
2022-10-15T21:29:16.412Z,16.92
2022-10-15T21:32:03.818Z,16.94
2022-10-15T21:34:49.821Z,16.41
2022-10-15T21:37:37.935Z,16.77
2022-10-15T21:40:23.782Z,16.74
2022-10-15T21:43:10.557Z,16.73
2022-10-15T21:46:06.411Z,16.45
2022-10-15T21:48:55.336Z,16.95
2022-10-15T21:51:41.545Z,16.32
2022-10-15T21:54:31.602Z,16.85
2022-10-15T21:57:17.677Z,16.70
2022-10-15T22:00:16.425Z,16.14
2022-10-15T22:03:03.665Z,16.21
2022-10-15T22:05:51.558Z,16.25
2022-10-15T22:08:38.287Z,16.29
2022-10-15T22:11:27.772Z,16.75
2022-10-15T22:14:15.250Z,16.89
2022-10-15T22:17:01.547Z,16.44
2022-10-15T22:19:50.140Z,16.89
2022-10-15T22:22:36.424Z,16.92
2022-10-15T22:25:23.509Z,17.20
2022-10-15T22:28:09.856Z,16.63
2022-10-15T22:31:01.713Z,17.26
2022-10-15T22:33:48.137Z,17.09
2022-10-15T22:36:35.308Z,16.75
2022-10-15T22:39:22.482Z,16.87
2022-10-15T22:42:08.727Z,16.78
2022-10-15T22:44:54.892Z,16.37
2022-10-15T22:47:41.751Z,17.02
2022-10-15T22:50:29.454Z,16.23
2022-10-15T22:53:16.485Z,16.33
2022-10-15T22:56:04.610Z,16.20
2022-10-15T22:58:50.966Z,16.53
2022-10-15T23:01:37.080Z,16.53
2022-10-15T23:04:23.531Z,16.35
2022-10-15T23:07:09.417Z,16.34
2022-10-15T23:09:55.688Z,16.34
2022-10-15T23:12:41.959Z,16.78
2022-10-15T23:15:28.457Z,16.68
2022-10-15T23:18:14.547Z,16.33
2022-10-15T23:21:09.494Z,16.74
2022-10-15T23:23:55.421Z,16.64
2022-10-15T23:26:43.493Z,16.55
2022-10-15T23:29:29.893Z,16.95
2022-10-15T23:32:16.291Z,16.56
2022-10-15T23:35:03.117Z,16.61
2022-10-15T23:37:49.118Z,16.15
2022-10-15T23:40:35.051Z,16.53
2022-10-15T23:43:22.843Z,16.69
2022-10-15T23:46:08.904Z,16.80
2022-10-15T23:48:55.472Z,16.73
2022-10-15T23:51:41.651Z,16.49
2022-10-15T23:54:28.485Z,16.80
2022-10-15T23:57:15.738Z,16.84
